createdAt,value
2023-07-31T00:02:12.299Z,100766.41
2023-07-31T00:04:40.220Z,100764.72
2023-07-31T00:07:09.560Z,100767.84
2023-07-31T00:09:37.562Z,100761.19
2023-07-31T00:12:06.329Z,100753.34
2023-07-31T00:14:34.265Z,100742.72
2023-07-31T00:17:02.111Z,100747.53
2023-07-31T00:19:30.050Z,100746.41
2023-07-31T00:21:57.925Z,100746.13
2023-07-31T00:24:27.412Z,100737.38
2023-07-31T00:26:55.491Z,100747.56
2023-07-31T00:29:23.383Z,100739.66
2023-07-31T00:31:51.394Z,100733.56
2023-07-31T00:34:19.446Z,100736.09
2023-07-31T00:36:47.362Z,100742.06
2023-07-31T00:39:15.251Z,100731.88
2023-07-31T00:41:44.556Z,100727.19
2023-07-31T00:44:12.453Z,100732.28
2023-07-31T00:46:40.832Z,100731.56
2023-07-31T00:49:09.829Z,100728.19
2023-07-31T00:51:37.800Z,100728.47
2023-07-31T00:54:06.352Z,100721.81
2023-07-31T00:56:35.040Z,100720.53
2023-07-31T00:59:04.373Z,100721.50
2023-07-31T01:01:32.324Z,100720.78
2023-07-31T01:04:00.500Z,100714.69
2023-07-31T01:06:38.980Z,100707.47
2023-07-31T01:09:14.365Z,100708.31
2023-07-31T01:11:49.595Z,100701.22
2023-07-31T01:14:18.937Z,100703.22
2023-07-31T01:16:46.909Z,100687.63
2023-07-31T01:19:17.271Z,100698.22
2023-07-31T01:22:01.489Z,100688.59
2023-07-31T01:24:38.191Z,100695.69
2023-07-31T01:27:11.837Z,100686.44
2023-07-31T01:29:45.405Z,100693.84
2023-07-31T01:32:15.192Z,100690.28
2023-07-31T01:34:44.645Z,100682.03
2023-07-31T01:37:12.825Z,100678.06
2023-07-31T01:39:40.860Z,100678.38
2023-07-31T01:42:10.384Z,100679.50
2023-07-31T01:44:38.299Z,100677.06
2023-07-31T01:47:06.904Z,100670.56
2023-07-31T01:49:34.811Z,100660.78
2023-07-31T01:52:02.784Z,100657.50
2023-07-31T01:54:30.942Z,100659.09
2023-07-31T01:56:58.880Z,100660.09
2023-07-31T01:59:28.244Z,100654.09
2023-07-31T02:01:56.300Z,100641.34
2023-07-31T02:04:24.393Z,100643.78
2023-07-31T02:06:52.257Z,100639.78
2023-07-31T02:09:20.214Z,100645.91
2023-07-31T02:11:48.197Z,100641.63
2023-07-31T02:14:16.197Z,100638.38
2023-07-31T02:16:45.519Z,100638.38
2023-07-31T02:19:13.484Z,100636.09
2023-07-31T02:21:41.411Z,100649.44
2023-07-31T02:24:09.464Z,100636.81
2023-07-31T02:26:37.711Z,100632.28
2023-07-31T02:29:05.782Z,100640.50
2023-07-31T02:31:33.948Z,100635.38
2023-07-31T02:34:03.272Z,100624.47
2023-07-31T02:36:31.191Z,100620.91
2023-07-31T02:38:59.156Z,100619.63
2023-07-31T02:41:27.064Z,100620.47
2023-07-31T02:43:55.042Z,100619.34
2023-07-31T02:46:25.641Z,100619.78
2023-07-31T02:48:53.762Z,100618.53
2023-07-31T02:51:23.315Z,100626.16
2023-07-31T02:53:51.695Z,100612.56
2023-07-31T02:56:19.852Z,100608.16
2023-07-31T02:58:47.820Z,100610.13
2023-07-31T03:01:15.800Z,100615.53
2023-07-31T03:03:44.296Z,100608.28
2023-07-31T03:06:12.302Z,100608.16
2023-07-31T03:08:41.677Z,100598.06
2023-07-31T03:11:09.684Z,100600.50
2023-07-31T03:13:37.541Z,100602.75
2023-07-31T03:16:06.029Z,100598.50
2023-07-31T03:18:33.942Z,100596.94
2023-07-31T03:21:01.882Z,100595.69
2023-07-31T03:23:29.854Z,100591.00
2023-07-31T03:25:59.919Z,100581.03
2023-07-31T03:28:27.935Z,100591.66
2023-07-31T03:30:55.923Z,100586.56
2023-07-31T03:33:23.984Z,100578.94
2023-07-31T03:35:51.950Z,100577.06
2023-07-31T03:38:20.329Z,100581.47
2023-07-31T03:40:48.275Z,100583.31
2023-07-31T03:43:18.071Z,100578.34
2023-07-31T03:45:46.079Z,100576.50
2023-07-31T03:48:16.410Z,100573.94
2023-07-31T03:50:44.469Z,100587.84
2023-07-31T03:53:13.072Z,100579.19
2023-07-31T03:55:40.934Z,100577.06
2023-07-31T03:58:08.766Z,100575.47
2023-07-31T04:00:38.211Z,100585.00
2023-07-31T04:03:06.277Z,100586.25
2023-07-31T04:05:34.976Z,100581.31
2023-07-31T04:08:03.019Z,100589.69
2023-07-31T04:10:32.403Z,100585.44
2023-07-31T04:13:00.290Z,100580.63
2023-07-31T04:15:28.222Z,100582.31
2023-07-31T04:17:57.666Z,100580.31
2023-07-31T04:20:25.687Z,100576.75
2023-07-31T04:22:53.651Z,100570.78
2023-07-31T04:25:21.540Z,100569.53
2023-07-31T04:27:49.471Z,100557.06
2023-07-31T04:30:17.586Z,100561.59
2023-07-31T04:32:45.500Z,100555.34
2023-07-31T04:35:14.741Z,100557.06
2023-07-31T04:37:42.764Z,100557.94
2023-07-31T04:40:11.292Z,100559.47
2023-07-31T04:42:39.191Z,100559.03
2023-07-31T04:45:08.094Z,100549.69
2023-07-31T04:47:36.002Z,100553.09
2023-07-31T04:50:03.945Z,100553.66
2023-07-31T04:52:33.257Z,100547.97
2023-07-31T04:55:01.128Z,100550.06
2023-07-31T04:57:29.044Z,100548.25
2023-07-31T04:59:56.956Z,100560.00
2023-07-31T05:02:25.804Z,100556.28
2023-07-31T05:04:53.783Z,100559.84
2023-07-31T05:07:21.828Z,100560.84
2023-07-31T05:09:51.052Z,100562.94
2023-07-31T05:12:18.933Z,100558.81
2023-07-31T05:14:46.914Z,100559.16
2023-07-31T05:17:14.780Z,100562.72
2023-07-31T05:19:43.061Z,100556.75
2023-07-31T05:22:11.048Z,100555.78
2023-07-31T05:24:38.917Z,100550.41
2023-07-31T05:27:09.142Z,100546.13
2023-07-31T05:29:37.140Z,100544.47
2023-07-31T05:32:05.726Z,100552.53
2023-07-31T05:34:33.606Z,100546.84
2023-07-31T05:37:01.500Z,100550.25
2023-07-31T05:39:29.546Z,100540.75
2023-07-31T05:41:57.391Z,100535.81
2023-07-31T05:44:26.745Z,100540.91
2023-07-31T05:46:54.785Z,100531.81
2023-07-31T05:49:22.683Z,100531.22
2023-07-31T05:51:50.596Z,100530.53
2023-07-31T05:54:18.544Z,100531.94
2023-07-31T05:56:46.420Z,100522.44
2023-07-31T05:59:15.415Z,100527.56
2023-07-31T06:01:44.986Z,100523.75
2023-07-31T06:04:13.042Z,100520.28
2023-07-31T06:06:41.505Z,100518.75
2023-07-31T06:09:09.618Z,100510.22
2023-07-31T06:11:37.742Z,100520.44
2023-07-31T06:14:05.685Z,100511.31
2023-07-31T06:16:33.648Z,100518.94
2023-07-31T06:19:03.090Z,100512.94
2023-07-31T06:21:31.113Z,100517.78
2023-07-31T06:23:59.017Z,100517.78
2023-07-31T06:26:26.954Z,100515.25
2023-07-31T06:28:54.924Z,100519.38
2023-07-31T06:31:24.291Z,100522.19
2023-07-31T06:33:53.194Z,100520.94
2023-07-31T06:36:22.581Z,100514.38
2023-07-31T06:38:50.426Z,100511.25
2023-07-31T06:41:18.266Z,100513.22
2023-07-31T06:43:46.282Z,100511.97
2023-07-31T06:46:14.669Z,100500.16
2023-07-31T06:48:42.653Z,100510.94
2023-07-31T06:51:10.624Z,100512.25
2023-07-31T06:53:39.864Z,100509.09
2023-07-31T06:56:07.723Z,100513.91
2023-07-31T06:58:35.673Z,100516.00
2023-07-31T07:01:03.673Z,100514.66
2023-07-31T07:03:31.673Z,100517.72
2023-07-31T07:05:59.673Z,100518.16
2023-07-31T07:08:27.726Z,100510.56
2023-07-31T07:10:57.033Z,100516.66
2023-07-31T07:13:24.993Z,100508.88
2023-07-31T07:15:53.591Z,100520.03
2023-07-31T07:18:22.040Z,100518.19
2023-07-31T07:20:52.892Z,100513.06
2023-07-31T07:23:21.681Z,100512.88
2023-07-31T07:25:49.832Z,100508.75
2023-07-31T07:28:19.182Z,100508.25
2023-07-31T07:30:47.114Z,100510.81
2023-07-31T07:33:15.181Z,100506.81
2023-07-31T07:35:43.139Z,100503.94
2023-07-31T07:38:11.004Z,100502.66
2023-07-31T07:40:41.213Z,100494.22
2023-07-31T07:43:09.486Z,100505.97
2023-07-31T07:45:38.718Z,100500.56
2023-07-31T07:48:06.855Z,100500.66
2023-07-31T07:50:34.849Z,100498.81
2023-07-31T07:53:02.782Z,100497.06
2023-07-31T07:55:30.757Z,100496.06
2023-07-31T07:57:58.661Z,100494.50
2023-07-31T08:00:26.557Z,100494.38
2023-07-31T08:02:55.973Z,100490.34
2023-07-31T08:05:24.039Z,100493.28
2023-07-31T08:07:51.971Z,100492.69
2023-07-31T08:10:20.008Z,100486.50
2023-07-31T08:12:47.926Z,100485.75
2023-07-31T08:15:15.914Z,100477.53
2023-07-31T08:17:43.882Z,100483.31
2023-07-31T08:20:15.418Z,100486.66
2023-07-31T08:22:43.359Z,100486.75
2023-07-31T08:25:11.340Z,100478.31
2023-07-31T08:27:39.302Z,100463.81
2023-07-31T08:30:08.551Z,100464.25
2023-07-31T08:32:36.467Z,100459.56
2023-07-31T08:35:04.807Z,100452.75
2023-07-31T08:37:34.052Z,100455.91
2023-07-31T08:40:02.140Z,100447.34
2023-07-31T08:42:31.902Z,100441.34
2023-07-31T08:45:01.705Z,100443.28
2023-07-31T08:47:30.462Z,100441.28
2023-07-31T08:49:59.728Z,100441.28
2023-07-31T08:52:27.779Z,100444.78
2023-07-31T08:54:57.088Z,100446.53
2023-07-31T08:57:25.579Z,100449.06
2023-07-31T08:59:54.719Z,100444.97
2023-07-31T09:02:24.087Z,100451.03
2023-07-31T09:04:52.098Z,100443.06
2023-07-31T09:07:20.560Z,100439.72
2023-07-31T09:09:48.629Z,100430.00
2023-07-31T09:12:18.455Z,100438.41
2023-07-31T09:14:48.863Z,100438.09
2023-07-31T09:17:16.800Z,100435.53
2023-07-31T09:19:44.731Z,100434.25
2023-07-31T09:22:12.726Z,100434.97
2023-07-31T09:24:40.608Z,100434.84
2023-07-31T09:27:08.765Z,100431.66
2023-07-31T09:29:38.034Z,100424.06
2023-07-31T09:32:06.440Z,100422.69
2023-07-31T09:34:40.195Z,100417.16
2023-07-31T09:37:08.158Z,100416.41
2023-07-31T09:39:48.470Z,100409.16
2023-07-31T09:42:16.452Z,100406.09
2023-07-31T09:44:45.698Z,100401.72
2023-07-31T09:47:26.216Z,100396.19
2023-07-31T09:49:54.548Z,100392.94
2023-07-31T09:52:22.481Z,100389.09
2023-07-31T09:54:50.595Z,100389.38
2023-07-31T09:57:20.624Z,100380.63
2023-07-31T09:59:51.241Z,100377.72
2023-07-31T10:02:23.955Z,100375.19
2023-07-31T10:04:53.080Z,100366.41
2023-07-31T10:07:25.525Z,100374.19
2023-07-31T10:09:54.732Z,100368.97
2023-07-31T10:12:27.789Z,100371.16
2023-07-31T10:14:57.821Z,100370.97
2023-07-31T10:17:26.995Z,100372.19
2023-07-31T10:19:55.640Z,100375.22
2023-07-31T10:22:23.604Z,100370.63
2023-07-31T10:24:54.061Z,100371.66
2023-07-31T10:27:21.943Z,100367.75
2023-07-31T10:29:50.828Z,100370.81
2023-07-31T10:32:21.804Z,100361.69
2023-07-31T10:34:51.471Z,100363.56
2023-07-31T10:37:26.919Z,100352.03
2023-07-31T10:39:59.464Z,100356.94
2023-07-31T10:42:31.553Z,100352.72
2023-07-31T10:45:01.446Z,100350.50
2023-07-31T10:47:30.794Z,100342.41
2023-07-31T10:50:21.042Z,100351.16
2023-07-31T10:52:50.484Z,100350.50
2023-07-31T10:55:27.471Z,100348.75
2023-07-31T10:57:56.203Z,100356.66
2023-07-31T11:00:27.240Z,100351.72
2023-07-31T11:03:04.843Z,100341.22
2023-07-31T11:06:04.451Z,100335.13
2023-07-31T11:08:34.295Z,100339.13
2023-07-31T11:11:09.933Z,100340.72
2023-07-31T11:13:43.234Z,100331.25
2023-07-31T11:16:11.229Z,100330.78
2023-07-31T11:18:42.845Z,100323.72
2023-07-31T11:21:13.882Z,100319.00
2023-07-31T11:23:41.855Z,100315.81
2023-07-31T11:26:10.236Z,100314.09
2023-07-31T11:28:38.400Z,100306.66
2023-07-31T11:31:07.087Z,100308.72
2023-07-31T11:33:34.981Z,100312.44
2023-07-31T11:36:04.392Z,100304.16
2023-07-31T11:38:33.987Z,100312.25
2023-07-31T11:41:03.963Z,100300.78
2023-07-31T11:43:33.383Z,100302.59
2023-07-31T11:46:04.369Z,100307.16
2023-07-31T11:48:35.673Z,100307.94
2023-07-31T11:51:07.053Z,100310.56
2023-07-31T11:53:40.378Z,100322.03
2023-07-31T11:56:09.831Z,100320.09
2023-07-31T11:58:38.892Z,100314.16
2023-07-31T12:01:07.660Z,100315.72
2023-07-31T12:03:36.757Z,100313.97
2023-07-31T12:06:05.993Z,100324.38
2023-07-31T12:08:33.979Z,100313.94
2023-07-31T12:11:06.249Z,100312.47
2023-07-31T12:13:36.652Z,100305.41
2023-07-31T12:16:06.410Z,100316.72
2023-07-31T12:18:36.757Z,100312.53
2023-07-31T12:21:07.576Z,100301.03
2023-07-31T12:23:37.327Z,100311.72
2023-07-31T12:26:06.402Z,100304.13
2023-07-31T12:28:38.127Z,100308.69
2023-07-31T12:31:06.925Z,100300.53
2023-07-31T12:33:36.110Z,100292.88
2023-07-31T12:36:08.804Z,100294.25
2023-07-31T12:38:37.014Z,100281.97
2023-07-31T12:41:05.115Z,100276.38
2023-07-31T12:43:33.266Z,100270.66
2023-07-31T12:46:01.532Z,100268.09
2023-07-31T12:48:29.430Z,100277.06
2023-07-31T12:50:57.299Z,100270.25
2023-07-31T12:53:26.630Z,100266.25
2023-07-31T12:55:54.662Z,100271.28
2023-07-31T12:58:22.627Z,100254.88
2023-07-31T13:00:50.481Z,100264.25
2023-07-31T13:03:18.389Z,100259.00
2023-07-31T13:05:46.512Z,100248.47
2023-07-31T13:08:16.700Z,100257.59
2023-07-31T13:10:46.060Z,100251.88
2023-07-31T13:13:14.059Z,100253.41
2023-07-31T13:15:42.008Z,100253.97
2023-07-31T13:18:09.925Z,100239.44
2023-07-31T13:20:37.892Z,100234.13
2023-07-31T13:23:05.770Z,100235.59
2023-07-31T13:25:33.948Z,100233.25
2023-07-31T13:28:04.166Z,100230.19
2023-07-31T13:30:32.330Z,100230.50
2023-07-31T13:33:00.223Z,100228.09
2023-07-31T13:35:28.135Z,100231.16
2023-07-31T13:37:55.993Z,100226.13
2023-07-31T13:40:24.274Z,100223.03
2023-07-31T13:42:52.200Z,100219.84
2023-07-31T13:45:21.565Z,100218.81
2023-07-31T13:47:49.510Z,100207.66
2023-07-31T13:50:17.994Z,100212.09
2023-07-31T13:52:45.938Z,100210.88
2023-07-31T13:55:14.031Z,100203.75
2023-07-31T13:57:41.966Z,100209.13
2023-07-31T14:00:10.814Z,100211.13
2023-07-31T14:02:40.225Z,100206.28
2023-07-31T14:05:10.690Z,100202.78
2023-07-31T14:07:38.681Z,100192.31
2023-07-31T14:10:07.236Z,100190.94
2023-07-31T14:12:42.531Z,100196.69
2023-07-31T14:15:11.745Z,100191.97
2023-07-31T14:17:41.501Z,100190.59
2023-07-31T14:20:11.331Z,100183.34
2023-07-31T14:22:39.442Z,100180.63
2023-07-31T14:25:07.998Z,100180.25
2023-07-31T14:27:35.910Z,100179.44
2023-07-31T14:30:04.047Z,100165.56
2023-07-31T14:32:31.957Z,100168.44
2023-07-31T14:35:01.218Z,100165.41
2023-07-31T14:37:38.388Z,100157.44
2023-07-31T14:40:07.591Z,100153.69
2023-07-31T14:42:35.818Z,100165.88
2023-07-31T14:45:03.965Z,100156.53
2023-07-31T14:47:33.220Z,100146.19
2023-07-31T14:50:03.187Z,100157.16
2023-07-31T14:52:31.490Z,100153.66
2023-07-31T14:54:59.409Z,100154.56
2023-07-31T14:57:27.683Z,100162.53
2023-07-31T14:59:55.983Z,100148.34
2023-07-31T15:02:23.973Z,100131.97
2023-07-31T15:04:51.924Z,100129.47
2023-07-31T15:07:21.242Z,100141.13
2023-07-31T15:09:49.153Z,100130.50
2023-07-31T15:12:17.027Z,100145.06
2023-07-31T15:14:45.017Z,100158.41
2023-07-31T15:17:12.974Z,100148.94
2023-07-31T15:19:40.801Z,100153.66
2023-07-31T15:22:09.022Z,100150.97
2023-07-31T15:24:39.568Z,100145.09
2023-07-31T15:27:09.605Z,100145.72
2023-07-31T15:29:38.448Z,100147.97
2023-07-31T15:32:07.579Z,100143.53
2023-07-31T15:34:35.649Z,100146.94
2023-07-31T15:37:04.953Z,100138.31
2023-07-31T15:39:33.162Z,100143.53
2023-07-31T15:42:02.481Z,100139.84
2023-07-31T15:44:30.364Z,100137.63
2023-07-31T15:46:58.465Z,100136.28
2023-07-31T15:49:26.383Z,100131.88
2023-07-31T15:51:54.345Z,100141.50
2023-07-31T15:54:22.203Z,100131.91
2023-07-31T15:56:50.219Z,100133.06
2023-07-31T15:59:19.455Z,100121.88
2023-07-31T16:01:47.476Z,100107.00
2023-07-31T16:04:17.016Z,100103.44
2023-07-31T16:06:44.981Z,100108.31
2023-07-31T16:09:13.004Z,100100.91
2023-07-31T16:11:41.178Z,100102.25
2023-07-31T16:14:10.840Z,100101.91
2023-07-31T16:16:40.487Z,100095.66
2023-07-31T16:19:08.838Z,100087.88
2023-07-31T16:21:38.092Z,100093.97
2023-07-31T16:24:06.595Z,100098.03
2023-07-31T16:26:35.264Z,100110.72
2023-07-31T16:29:03.266Z,100118.50
2023-07-31T16:31:40.064Z,100116.09
2023-07-31T16:34:16.654Z,100126.59
2023-07-31T16:36:44.558Z,100126.09
2023-07-31T16:39:12.411Z,100120.19
2023-07-31T16:41:40.569Z,100132.00
2023-07-31T16:44:08.782Z,100125.44
2023-07-31T16:46:36.646Z,100132.50
2023-07-31T16:49:05.115Z,100131.66
2023-07-31T16:51:34.826Z,100135.03
2023-07-31T16:54:02.746Z,100129.50
2023-07-31T16:56:32.915Z,100128.13
2023-07-31T16:59:04.578Z,100130.13
2023-07-31T17:01:33.607Z,100130.31
2023-07-31T17:04:02.239Z,100131.16
2023-07-31T17:06:30.617Z,100123.41
2023-07-31T17:08:59.911Z,100119.53
2023-07-31T17:11:27.784Z,100130.50
2023-07-31T17:13:55.601Z,100128.50
2023-07-31T17:16:24.066Z,100131.19
2023-07-31T17:18:51.911Z,100129.50
2023-07-31T17:21:19.799Z,100127.50
2023-07-31T17:23:47.721Z,100127.50
2023-07-31T17:26:16.925Z,100134.25
2023-07-31T17:28:44.782Z,100135.44
2023-07-31T17:31:13.888Z,100122.75
2023-07-31T17:33:42.003Z,100116.66
2023-07-31T17:36:10.103Z,100121.75
2023-07-31T17:38:38.020Z,100124.78
2023-07-31T17:41:05.945Z,100123.25
2023-07-31T17:43:35.198Z,100120.38
2023-07-31T17:46:04.668Z,100121.91
2023-07-31T17:48:33.537Z,100120.53
2023-07-31T17:51:02.575Z,100119.69
2023-07-31T17:53:30.422Z,100119.69
2023-07-31T17:55:58.258Z,100111.56
2023-07-31T17:58:26.232Z,100114.09
2023-07-31T18:00:55.961Z,100109.19
2023-07-31T18:03:24.023Z,100110.72
2023-07-31T18:05:52.033Z,100111.56
2023-07-31T18:08:20.117Z,100108.34
2023-07-31T18:10:48.741Z,100107.19
2023-07-31T18:13:17.650Z,100103.44
2023-07-31T18:15:46.496Z,100109.22
2023-07-31T18:18:16.364Z,100101.94
2023-07-31T18:20:44.243Z,100093.47
2023-07-31T18:23:12.255Z,100095.34
2023-07-31T18:25:42.518Z,100106.69
2023-07-31T18:28:10.591Z,100103.13
2023-07-31T18:30:38.524Z,100104.13
2023-07-31T18:33:06.545Z,100105.66
2023-07-31T18:35:40.012Z,100079.75
2023-07-31T18:38:07.916Z,100079.63
2023-07-31T18:40:35.815Z,100086.72
2023-07-31T18:43:05.111Z,100088.38
2023-07-31T18:45:34.207Z,100084.00
2023-07-31T18:48:02.264Z,100086.03
2023-07-31T18:50:30.172Z,100077.44
2023-07-31T18:52:59.475Z,100064.41
2023-07-31T18:55:27.522Z,100062.06
2023-07-31T18:57:55.516Z,100015.53
2023-07-31T19:00:23.494Z,100066.06
2023-07-31T19:02:51.522Z,100069.63
2023-07-31T19:05:19.640Z,100062.91
2023-07-31T19:07:47.423Z,100063.72
2023-07-31T19:10:17.629Z,100059.16
2023-07-31T19:12:45.805Z,100054.94
2023-07-31T19:15:13.702Z,100048.84
2023-07-31T19:17:43.693Z,100054.63
2023-07-31T19:20:12.322Z,100050.19
2023-07-31T19:22:40.222Z,100051.38
2023-07-31T19:25:08.926Z,100043.13
2023-07-31T19:27:38.158Z,100041.75
2023-07-31T19:30:06.820Z,100043.09
2023-07-31T19:32:34.892Z,100034.81
2023-07-31T19:35:03.106Z,100036.84
2023-07-31T19:37:31.745Z,100041.75
2023-07-31T19:39:59.636Z,100042.25
2023-07-31T19:42:27.459Z,100035.31
2023-07-31T19:44:56.692Z,100029.59
2023-07-31T19:47:24.689Z,100039.88
2023-07-31T19:49:52.599Z,100030.72
2023-07-31T19:52:20.449Z,100029.03
2023-07-31T19:54:48.293Z,100032.78
2023-07-31T19:57:16.139Z,100030.56
2023-07-31T19:59:44.708Z,100027.34
2023-07-31T20:02:14.085Z,100025.66
2023-07-31T20:04:41.960Z,100021.78
2023-07-31T20:07:09.807Z,100021.44
2023-07-31T20:09:37.749Z,100020.25
2023-07-31T20:12:06.416Z,100016.03
2023-07-31T20:14:34.735Z,100018.72
2023-07-31T20:17:02.608Z,100013.66
2023-07-31T20:19:32.157Z,100008.25
2023-07-31T20:22:00.077Z,100010.78
2023-07-31T20:24:27.981Z,100006.72
2023-07-31T20:26:55.803Z,99999.97
2023-07-31T20:29:23.646Z,100005.19
2023-07-31T20:31:51.637Z,100001.00
2023-07-31T20:34:19.512Z,99989.69
2023-07-31T20:36:48.693Z,99975.97
2023-07-31T20:39:16.586Z,99976.31
2023-07-31T20:41:44.621Z,99974.28
2023-07-31T20:44:12.470Z,99961.25
2023-07-31T20:46:40.736Z,99958.22
2023-07-31T20:49:08.998Z,99956.19
2023-07-31T20:51:38.925Z,99951.47
2023-07-31T20:54:08.345Z,99950.28
2023-07-31T20:56:36.225Z,99951.31
2023-07-31T20:59:04.135Z,99947.59
2023-07-31T21:01:32.082Z,99941.81
2023-07-31T21:04:00.040Z,99931.34
2023-07-31T21:06:28.003Z,99923.41
2023-07-31T21:08:55.935Z,99916.47
2023-07-31T21:11:25.173Z,99904.31
2023-07-31T21:13:53.003Z,99912.09
2023-07-31T21:16:21.409Z,99897.22
2023-07-31T21:18:49.339Z,99892.13
2023-07-31T21:21:17.210Z,99889.78
2023-07-31T21:23:45.117Z,99892.31
2023-07-31T21:26:13.081Z,99882.38
2023-07-31T21:28:42.333Z,99884.38
2023-07-31T21:31:13.950Z,99879.66
2023-07-31T21:33:42.142Z,99883.91
2023-07-31T21:36:10.036Z,99885.44
2023-07-31T21:38:37.956Z,99878.84
2023-07-31T21:41:05.868Z,99881.06
2023-07-31T21:43:33.712Z,99870.91
2023-07-31T21:46:03.018Z,99867.66
2023-07-31T21:48:30.880Z,99868.03
2023-07-31T21:50:58.926Z,99858.41
2023-07-31T21:53:26.810Z,99861.78
2023-07-31T21:55:54.647Z,99854.34
2023-07-31T21:58:22.468Z,99844.72
2023-07-31T22:00:50.417Z,99837.44
2023-07-31T22:03:19.682Z,99825.47
2023-07-31T22:05:47.601Z,99825.16
2023-07-31T22:08:15.488Z,99822.31
2023-07-31T22:10:43.348Z,99814.69
2023-07-31T22:13:11.218Z,99811.66
2023-07-31T22:15:39.128Z,99801.84
2023-07-31T22:18:07.048Z,99795.47
2023-07-31T22:20:36.306Z,99792.75
2023-07-31T22:23:04.201Z,99793.44
2023-07-31T22:25:32.082Z,99796.63
2023-07-31T22:28:10.911Z,99805.59
2023-07-31T22:30:47.161Z,99797.31
2023-07-31T22:33:15.003Z,99785.16
2023-07-31T22:35:44.372Z,99776.19
2023-07-31T22:38:12.288Z,99773.66
2023-07-31T22:40:40.095Z,99768.63
2023-07-31T22:43:07.972Z,99768.75
2023-07-31T22:45:35.857Z,99760.16
2023-07-31T22:48:03.756Z,99760.50
2023-07-31T22:50:31.608Z,99756.78
2023-07-31T22:53:01.022Z,99749.03
2023-07-31T22:55:28.953Z,99744.13
2023-07-31T22:57:56.805Z,99737.88
2023-07-31T23:00:24.775Z,99730.78
2023-07-31T23:02:52.621Z,99737.38
2023-07-31T23:05:20.722Z,99723.69
2023-07-31T23:07:48.696Z,99725.38
2023-07-31T23:10:18.128Z,99722.31
2023-07-31T23:12:46.035Z,99715.78
2023-07-31T23:15:14.225Z,99722.84
2023-07-31T23:17:42.153Z,99713.56
2023-07-31T23:20:11.262Z,99711.22
2023-07-31T23:22:39.226Z,99709.38
2023-07-31T23:25:07.961Z,99707.84
2023-07-31T23:27:37.233Z,99696.50
2023-07-31T23:30:06.080Z,99690.63
2023-07-31T23:32:34.076Z,99695.34
2023-07-31T23:35:02.073Z,99698.03
2023-07-31T23:37:30.102Z,99695.03
2023-07-31T23:39:57.967Z,99691.78
2023-07-31T23:42:26.485Z,99691.31
2023-07-31T23:45:08.843Z,99696.00
2023-07-31T23:47:38.718Z,99701.59
2023-07-31T23:50:08.007Z,99696.03
2023-07-31T23:52:36.692Z,99694.34
2023-07-31T23:55:04.724Z,99695.34
2023-07-31T23:57:32.700Z,99689.59
